sensor_id;sensor_type;location;lat;lon;timestamp;temperature;humidity
13389;DHT22;6764;53.250;10.410;2024-01-07T00:00:01;0.50;99.90
13389;DHT22;6764;53.250;10.410;2024-01-07T00:02:27;0.50;99.90
13389;DHT22;6764;53.250;10.410;2024-01-07T00:04:53;0.40;99.90
13389;DHT22;6764;53.250;10.410;2024-01-07T00:07:18;0.50;99.90
13389;DHT22;6764;53.250;10.410;2024-01-07T00:09:46;0.50;99.90
13389;DHT22;6764;53.250;10.410;2024-01-07T00:12:11;0.60;99.90
13389;DHT22;6764;53.250;10.410;2024-01-07T00:14:37;0.60;99.90
13389;DHT22;6764;53.250;10.410;2024-01-07T00:17:02;0.50;99.90
13389;DHT22;6764;53.250;10.410;2024-01-07T00:19:28;0.60;99.90
13389;DHT22;6764;53.250;10.410;2024-01-07T00:21:56;0.50;99.90
13389;DHT22;6764;53.250;10.410;2024-01-07T00:24:22;0.40;99.90
13389;DHT22;6764;53.250;10.410;2024-01-07T00:26:47;0.30;99.90
13389;DHT22;6764;53.250;10.410;2024-01-07T00:29:13;0.30;99.90
13389;DHT22;6764;53.250;10.410;2024-01-07T00:31:38;0.40;99.90
13389;DHT22;6764;53.250;10.410;2024-01-07T00:34:04;0.30;99.90
13389;DHT22;6764;53.250;10.410;2024-01-07T00:36:30;0.30;99.90
13389;DHT22;6764;53.250;10.410;2024-01-07T00:38:55;0.40;99.90
13389;DHT22;6764;53.250;10.410;2024-01-07T00:41:21;0.30;99.90
13389;DHT22;6764;53.250;10.410;2024-01-07T00:43:46;0.20;99.90
13389;DHT22;6764;53.250;10.410;2024-01-07T00:46:12;0.30;99.90
13389;DHT22;6764;53.250;10.410;2024-01-07T00:48:38;0.20;99.90
13389;DHT22;6764;53.250;10.410;2024-01-07T00:51:04;0.20;99.90
13389;DHT22;6764;53.250;10.410;2024-01-07T00:53:29;0.20;99.90
13389;DHT22;6764;53.250;10.410;2024-01-07T00:55:55;0.20;99.90
13389;DHT22;6764;53.250;10.410;2024-01-07T00:58:21;0.20;99.90
13389;DHT22;6764;53.250;10.410;2024-01-07T01:00:46;0.20;99.90
13389;DHT22;6764;53.250;10.410;2024-01-07T01:03:12;0.10;99.90
13389;DHT22;6764;53.250;10.410;2024-01-07T01:05:37;0.10;99.90
13389;DHT22;6764;53.250;10.410;2024-01-07T01:08:03;0.10;99.90
13389;DHT22;6764;53.250;10.410;2024-01-07T01:10:29;0.10;99.90
13389;DHT22;6764;53.250;10.410;2024-01-07T01:12:54;0.20;99.90
13389;DHT22;6764;53.250;10.410;2024-01-07T01:15:20;0.10;99.90
13389;DHT22;6764;53.250;10.410;2024-01-07T01:17:46;0.20;99.90
13389;DHT22;6764;53.250;10.410;2024-01-07T01:20:11;0.20;99.90
13389;DHT22;6764;53.250;10.410;2024-01-07T01:22:37;0.10;99.90
13389;DHT22;6764;53.250;10.410;2024-01-07T01:25:03;0.10;99.90
13389;DHT22;6764;53.250;10.410;2024-01-07T01:27:29;0.20;99.90
13389;DHT22;6764;53.250;10.410;2024-01-07T01:29:55;0.10;99.90
13389;DHT22;6764;53.250;10.410;2024-01-07T01:32:20;0.20;99.90
13389;DHT22;6764;53.250;10.410;2024-01-07T01:34:46;0.10;99.90
13389;DHT22;6764;53.250;10.410;2024-01-07T01:37:11;0.10;99.90
13389;DHT22;6764;53.250;10.410;2024-01-07T01:39:40;0.20;99.90
13389;DHT22;6764;53.250;10.410;2024-01-07T01:42:06;0.10;99.90
13389;DHT22;6764;53.250;10.410;2024-01-07T01:44:33;0.20;99.90
13389;DHT22;6764;53.250;10.410;2024-01-07T01:46:59;0.30;99.90
13389;DHT22;6764;53.250;10.410;2024-01-07T01:49:27;0.30;99.90
13389;DHT22;6764;53.250;10.410;2024-01-07T01:51:53;0.30;99.90
13389;DHT22;6764;53.250;10.410;2024-01-07T01:54:19;0.30;99.90
13389;DHT22;6764;53.250;10.410;2024-01-07T01:56:46;0.20;99.90
13389;DHT22;6764;53.250;10.410;2024-01-07T01:59:13;0.20;99.90
13389;DHT22;6764;53.250;10.410;2024-01-07T02:01:39;0.20;99.90
13389;DHT22;6764;53.250;10.410;2024-01-07T02:04:05;0.10;99.90
13389;DHT22;6764;53.250;10.410;2024-01-07T02:06:31;0.20;99.90
13389;DHT22;6764;53.250;10.410;2024-01-07T02:08:56;0.20;99.90
13389;DHT22;6764;53.250;10.410;2024-01-07T02:11:22;0.20;99.90
13389;DHT22;6764;53.250;10.410;2024-01-07T02:13:49;0.20;99.90
13389;DHT22;6764;53.250;10.410;2024-01-07T02:16:15;0.20;99.90
13389;DHT22;6764;53.250;10.410;2024-01-07T02:18:41;0.30;99.90
13389;DHT22;6764;53.250;10.410;2024-01-07T02:21:09;0.20;99.90
13389;DHT22;6764;53.250;10.410;2024-01-07T02:23:34;0.20;99.90
13389;DHT22;6764;53.250;10.410;2024-01-07T02:26:00;0.10;99.90
13389;DHT22;6764;53.250;10.410;2024-01-07T02:28:26;0.30;99.90
13389;DHT22;6764;53.250;10.410;2024-01-07T02:30:51;0.20;99.90
13389;DHT22;6764;53.250;10.410;2024-01-07T02:33:17;0.20;99.90
13389;DHT22;6764;53.250;10.410;2024-01-07T02:35:43;0.20;99.90
13389;DHT22;6764;53.250;10.410;2024-01-07T02:38:08;0.20;99.90
13389;DHT22;6764;53.250;10.410;2024-01-07T02:40:34;0.10;99.90
13389;DHT22;6764;53.250;10.410;2024-01-07T02:42:59;0.10;99.90
13389;DHT22;6764;53.250;10.410;2024-01-07T02:45:25;0.10;99.90
13389;DHT22;6764;53.250;10.410;2024-01-07T02:47:51;0.00;99.90
13389;DHT22;6764;53.250;10.410;2024-01-07T02:50:16;-0.10;99.90
13389;DHT22;6764;53.250;10.410;2024-01-07T02:52:42;-0.20;99.90
13389;DHT22;6764;53.250;10.410;2024-01-07T02:55:08;-0.20;99.90
13389;DHT22;6764;53.250;10.410;2024-01-07T02:57:34;-0.10;99.90
13389;DHT22;6764;53.250;10.410;2024-01-07T02:59:59;-0.10;99.90
13389;DHT22;6764;53.250;10.410;2024-01-07T03:02:25;-0.30;99.90
13389;DHT22;6764;53.250;10.410;2024-01-07T03:04:51;-0.30;99.90
13389;DHT22;6764;53.250;10.410;2024-01-07T03:07:16;-0.30;99.90
13389;DHT22;6764;53.250;10.410;2024-01-07T03:09:42;-0.40;99.90
13389;DHT22;6764;53.250;10.410;2024-01-07T03:12:08;-0.40;99.90
13389;DHT22;6764;53.250;10.410;2024-01-07T03:14:34;-0.40;99.90
13389;DHT22;6764;53.250;10.410;2024-01-07T03:16:59;-0.40;99.90
13389;DHT22;6764;53.250;10.410;2024-01-07T03:19:25;-0.40;99.90
13389;DHT22;6764;53.250;10.410;2024-01-07T03:21:50;-0.30;99.90
13389;DHT22;6764;53.250;10.410;2024-01-07T03:24:16;-0.20;99.90
13389;DHT22;6764;53.250;10.410;2024-01-07T03:26:41;-0.30;99.90
13389;DHT22;6764;53.250;10.410;2024-01-07T03:29:07;-0.20;99.90
13389;DHT22;6764;53.250;10.410;2024-01-07T03:31:33;0.00;99.90
13389;DHT22;6764;53.250;10.410;2024-01-07T03:33:59;0.00;99.90
13389;DHT22;6764;53.250;10.410;2024-01-07T03:36:24;0.00;99.90
13389;DHT22;6764;53.250;10.410;2024-01-07T03:38:50;0.00;99.90
13389;DHT22;6764;53.250;10.410;2024-01-07T03:41:16;0.00;99.90
13389;DHT22;6764;53.250;10.410;2024-01-07T03:43:49;-0.10;99.90
13389;DHT22;6764;53.250;10.410;2024-01-07T03:46:16;-0.10;99.90
13389;DHT22;6764;53.250;10.410;2024-01-07T03:48:42;-0.10;99.90
13389;DHT22;6764;53.250;10.410;2024-01-07T03:51:07;-0.10;99.90
13389;DHT22;6764;53.250;10.410;2024-01-07T03:53:33;-0.20;99.90
13389;DHT22;6764;53.250;10.410;2024-01-07T03:55:59;-0.10;99.90
13389;DHT22;6764;53.250;10.410;2024-01-07T03:58:25;0.10;99.90
13389;DHT22;6764;53.250;10.410;2024-01-07T04:00:50;0.00;99.90
13389;DHT22;6764;53.250;10.410;2024-01-07T04:03:16;0.00;99.90
13389;DHT22;6764;53.250;10.410;2024-01-07T04:05:42;0.10;99.90
13389;DHT22;6764;53.250;10.410;2024-01-07T04:08:11;0.10;99.90
13389;DHT22;6764;53.250;10.410;2024-01-07T04:10:37;0.20;99.90
13389;DHT22;6764;53.250;10.410;2024-01-07T04:13:06;0.10;99.90
13389;DHT22;6764;53.250;10.410;2024-01-07T04:15:32;0.00;99.90
13389;DHT22;6764;53.250;10.410;2024-01-07T04:18:04;0.10;99.90
13389;DHT22;6764;53.250;10.410;2024-01-07T04:20:30;0.00;99.90
13389;DHT22;6764;53.250;10.410;2024-01-07T04:22:56;0.10;99.90
13389;DHT22;6764;53.250;10.410;2024-01-07T04:25:25;0.20;99.90
13389;DHT22;6764;53.250;10.410;2024-01-07T04:27:51;0.30;99.90
13389;DHT22;6764;53.250;10.410;2024-01-07T04:30:16;0.40;99.90
13389;DHT22;6764;53.250;10.410;2024-01-07T04:32:42;0.50;99.90
13389;DHT22;6764;53.250;10.410;2024-01-07T04:35:08;0.50;99.90
13389;DHT22;6764;53.250;10.410;2024-01-07T04:37:34;0.50;99.90
13389;DHT22;6764;53.250;10.410;2024-01-07T04:40:00;0.40;99.90
13389;DHT22;6764;53.250;10.410;2024-01-07T04:42:26;0.40;99.90
13389;DHT22;6764;53.250;10.410;2024-01-07T04:44:51;0.50;99.90
13389;DHT22;6764;53.250;10.410;2024-01-07T04:47:31;0.50;99.90
13389;DHT22;6764;53.250;10.410;2024-01-07T04:49:57;0.70;99.90
13389;DHT22;6764;53.250;10.410;2024-01-07T04:52:23;0.60;99.90
13389;DHT22;6764;53.250;10.410;2024-01-07T04:54:52;0.70;99.90
13389;DHT22;6764;53.250;10.410;2024-01-07T04:57:18;0.60;99.90
13389;DHT22;6764;53.250;10.410;2024-01-07T04:59:45;0.60;99.90
13389;DHT22;6764;53.250;10.410;2024-01-07T05:02:11;0.60;99.90
13389;DHT22;6764;53.250;10.410;2024-01-07T05:04:36;0.60;99.90
13389;DHT22;6764;53.250;10.410;2024-01-07T05:07:02;0.70;99.90
13389;DHT22;6764;53.250;10.410;2024-01-07T05:09:28;0.70;99.90
13389;DHT22;6764;53.250;10.410;2024-01-07T05:11:54;0.80;99.90
13389;DHT22;6764;53.250;10.410;2024-01-07T05:14:20;0.80;99.90
13389;DHT22;6764;53.250;10.410;2024-01-07T05:16:45;0.70;99.90
13389;DHT22;6764;53.250;10.410;2024-01-07T05:19:11;0.80;99.90
13389;DHT22;6764;53.250;10.410;2024-01-07T05:21:37;0.70;99.90
13389;DHT22;6764;53.250;10.410;2024-01-07T05:24:02;0.70;99.90
13389;DHT22;6764;53.250;10.410;2024-01-07T05:26:28;0.70;99.90
13389;DHT22;6764;53.250;10.410;2024-01-07T05:28:54;0.80;99.90
13389;DHT22;6764;53.250;10.410;2024-01-07T05:31:19;0.80;99.90
13389;DHT22;6764;53.250;10.410;2024-01-07T05:33:46;0.80;99.90
13389;DHT22;6764;53.250;10.410;2024-01-07T05:36:12;0.70;99.90
13389;DHT22;6764;53.250;10.410;2024-01-07T05:38:37;0.70;99.90
13389;DHT22;6764;53.250;10.410;2024-01-07T05:41:03;0.80;99.90
13389;DHT22;6764;53.250;10.410;2024-01-07T05:43:29;0.60;99.90
13389;DHT22;6764;53.250;10.410;2024-01-07T05:45:55;0.60;99.90
13389;DHT22;6764;53.250;10.410;2024-01-07T05:48:22;0.60;99.90
13389;DHT22;6764;53.250;10.410;2024-01-07T05:50:48;0.70;99.90
13389;DHT22;6764;53.250;10.410;2024-01-07T05:53:13;0.60;99.90
13389;DHT22;6764;53.250;10.410;2024-01-07T05:55:39;0.70;99.90
13389;DHT22;6764;53.250;10.410;2024-01-07T05:58:04;0.80;99.90
13389;DHT22;6764;53.250;10.410;2024-01-07T06:00:30;0.80;99.90
13389;DHT22;6764;53.250;10.410;2024-01-07T06:02:56;0.90;99.90
13389;DHT22;6764;53.250;10.410;2024-01-07T06:05:22;0.90;99.90
13389;DHT22;6764;53.250;10.410;2024-01-07T06:07:47;1.00;99.90
13389;DHT22;6764;53.250;10.410;2024-01-07T06:10:13;1.20;99.90
13389;DHT22;6764;53.250;10.410;2024-01-07T06:12:38;1.10;99.90
13389;DHT22;6764;53.250;10.410;2024-01-07T06:15:04;1.10;99.90
13389;DHT22;6764;53.250;10.410;2024-01-07T06:17:31;1.10;99.90
13389;DHT22;6764;53.250;10.410;2024-01-07T06:19:56;1.10;99.90
13389;DHT22;6764;53.250;10.410;2024-01-07T06:22:22;1.10;99.90
13389;DHT22;6764;53.250;10.410;2024-01-07T06:24:48;1.00;99.90
13389;DHT22;6764;53.250;10.410;2024-01-07T06:27:14;1.10;99.90
13389;DHT22;6764;53.250;10.410;2024-01-07T06:29:40;1.10;99.90
13389;DHT22;6764;53.250;10.410;2024-01-07T06:32:05;1.20;99.90
13389;DHT22;6764;53.250;10.410;2024-01-07T06:34:31;1.20;99.90
13389;DHT22;6764;53.250;10.410;2024-01-07T06:36:58;1.30;99.90
13389;DHT22;6764;53.250;10.410;2024-01-07T06:39:24;1.30;99.90
13389;DHT22;6764;53.250;10.410;2024-01-07T06:41:52;1.40;99.90
13389;DHT22;6764;53.250;10.410;2024-01-07T06:44:18;1.40;99.90
13389;DHT22;6764;53.250;10.410;2024-01-07T06:46:43;1.40;99.90
13389;DHT22;6764;53.250;10.410;2024-01-07T06:49:09;1.50;99.90
13389;DHT22;6764;53.250;10.410;2024-01-07T06:51:34;1.50;99.90
13389;DHT22;6764;53.250;10.410;2024-01-07T06:54:00;1.40;99.90
13389;DHT22;6764;53.250;10.410;2024-01-07T06:56:26;1.40;99.90
13389;DHT22;6764;53.250;10.410;2024-01-07T06:58:51;1.40;99.90
13389;DHT22;6764;53.250;10.410;2024-01-07T07:01:21;1.30;99.90
13389;DHT22;6764;53.250;10.410;2024-01-07T07:03:50;1.20;99.90
13389;DHT22;6764;53.250;10.410;2024-01-07T07:06:16;1.30;99.90
13389;DHT22;6764;53.250;10.410;2024-01-07T07:08:42;1.40;99.90
13389;DHT22;6764;53.250;10.410;2024-01-07T07:11:08;1.40;99.90
13389;DHT22;6764;53.250;10.410;2024-01-07T07:13:34;1.50;99.90
13389;DHT22;6764;53.250;10.410;2024-01-07T07:16:00;1.50;99.90
13389;DHT22;6764;53.250;10.410;2024-01-07T07:18:26;1.40;99.90
13389;DHT22;6764;53.250;10.410;2024-01-07T07:20:51;1.40;99.90
13389;DHT22;6764;53.250;10.410;2024-01-07T07:23:17;1.40;99.90
13389;DHT22;6764;53.250;10.410;2024-01-07T07:25:43;1.40;99.90
13389;DHT22;6764;53.250;10.410;2024-01-07T07:28:09;1.40;99.90
13389;DHT22;6764;53.250;10.410;2024-01-07T07:30:34;1.30;99.90
13389;DHT22;6764;53.250;10.410;2024-01-07T07:33:00;1.20;99.90
13389;DHT22;6764;53.250;10.410;2024-01-07T07:35:26;1.20;99.90
13389;DHT22;6764;53.250;10.410;2024-01-07T07:37:51;1.20;99.90
13389;DHT22;6764;53.250;10.410;2024-01-07T07:40:17;1.30;99.90
13389;DHT22;6764;53.250;10.410;2024-01-07T07:42:44;1.30;99.90
13389;DHT22;6764;53.250;10.410;2024-01-07T07:45:09;1.30;99.90
13389;DHT22;6764;53.250;10.410;2024-01-07T07:47:35;1.40;99.90
13389;DHT22;6764;53.250;10.410;2024-01-07T07:50:01;1.40;99.90
13389;DHT22;6764;53.250;10.410;2024-01-07T07:52:28;1.50;99.90
13389;DHT22;6764;53.250;10.410;2024-01-07T07:54:53;1.40;99.90
13389;DHT22;6764;53.250;10.410;2024-01-07T07:57:20;1.40;99.90
13389;DHT22;6764;53.250;10.410;2024-01-07T07:59:50;1.50;99.90
13389;DHT22;6764;53.250;10.410;2024-01-07T08:02:16;1.60;99.90
13389;DHT22;6764;53.250;10.410;2024-01-07T08:04:42;1.60;99.90
13389;DHT22;6764;53.250;10.410;2024-01-07T08:07:09;1.60;99.90
13389;DHT22;6764;53.250;10.410;2024-01-07T08:09:34;1.70;99.90
13389;DHT22;6764;53.250;10.410;2024-01-07T08:12:04;1.70;99.90
13389;DHT22;6764;53.250;10.410;2024-01-07T08:14:31;1.70;99.90
13389;DHT22;6764;53.250;10.410;2024-01-07T08:16:57;1.80;99.90
13389;DHT22;6764;53.250;10.410;2024-01-07T08:19:22;1.70;99.90
13389;DHT22;6764;53.250;10.410;2024-01-07T08:21:48;1.70;99.90
13389;DHT22;6764;53.250;10.410;2024-01-07T08:24:14;1.70;99.90
13389;DHT22;6764;53.250;10.410;2024-01-07T08:26:39;1.70;99.90
13389;DHT22;6764;53.250;10.410;2024-01-07T08:29:05;1.80;99.90
13389;DHT22;6764;53.250;10.410;2024-01-07T08:31:31;1.80;99.90
13389;DHT22;6764;53.250;10.410;2024-01-07T08:33:57;1.80;99.90
13389;DHT22;6764;53.250;10.410;2024-01-07T08:36:23;1.70;99.90
13389;DHT22;6764;53.250;10.410;2024-01-07T08:38:48;1.60;99.90
13389;DHT22;6764;53.250;10.410;2024-01-07T08:41:17;1.70;99.90
13389;DHT22;6764;53.250;10.410;2024-01-07T08:43:43;1.70;99.90
13389;DHT22;6764;53.250;10.410;2024-01-07T08:46:10;1.80;99.90
13389;DHT22;6764;53.250;10.410;2024-01-07T08:48:36;1.80;99.90
13389;DHT22;6764;53.250;10.410;2024-01-07T08:51:01;1.80;99.90
13389;DHT22;6764;53.250;10.410;2024-01-07T08:53:28;1.90;99.90
13389;DHT22;6764;53.250;10.410;2024-01-07T08:55:54;1.80;99.90
13389;DHT22;6764;53.250;10.410;2024-01-07T08:58:19;1.90;99.90
13389;DHT22;6764;53.250;10.410;2024-01-07T09:00:45;1.80;99.90
13389;DHT22;6764;53.250;10.410;2024-01-07T09:03:11;1.80;99.90
13389;DHT22;6764;53.250;10.410;2024-01-07T09:05:37;1.90;99.90
13389;DHT22;6764;53.250;10.410;2024-01-07T09:08:02;1.90;99.90
13389;DHT22;6764;53.250;10.410;2024-01-07T09:10:28;1.80;99.90
13389;DHT22;6764;53.250;10.410;2024-01-07T09:12:54;1.80;99.90
13389;DHT22;6764;53.250;10.410;2024-01-07T09:15:20;1.90;99.90
13389;DHT22;6764;53.250;10.410;2024-01-07T09:17:46;1.90;99.90
13389;DHT22;6764;53.250;10.410;2024-01-07T09:20:12;1.90;99.90
13389;DHT22;6764;53.250;10.410;2024-01-07T09:22:38;1.90;99.90
13389;DHT22;6764;53.250;10.410;2024-01-07T09:25:05;1.80;99.90
13389;DHT22;6764;53.250;10.410;2024-01-07T09:27:31;1.70;99.90
13389;DHT22;6764;53.250;10.410;2024-01-07T09:29:57;1.70;99.90
13389;DHT22;6764;53.250;10.410;2024-01-07T09:32:23;1.60;99.90
13389;DHT22;6764;53.250;10.410;2024-01-07T09:34:48;1.50;99.90
13389;DHT22;6764;53.250;10.410;2024-01-07T09:37:14;1.40;99.90
13389;DHT22;6764;53.250;10.410;2024-01-07T09:39:40;1.30;99.90
13389;DHT22;6764;53.250;10.410;2024-01-07T09:42:15;1.30;99.90
13389;DHT22;6764;53.250;10.410;2024-01-07T09:44:42;1.30;99.90
13389;DHT22;6764;53.250;10.410;2024-01-07T09:47:13;1.30;99.90
13389;DHT22;6764;53.250;10.410;2024-01-07T09:49:40;1.20;99.90
13389;DHT22;6764;53.250;10.410;2024-01-07T09:52:08;1.20;99.90
13389;DHT22;6764;53.250;10.410;2024-01-07T09:54:36;1.20;99.90
13389;DHT22;6764;53.250;10.410;2024-01-07T09:57:04;1.20;99.90
13389;DHT22;6764;53.250;10.410;2024-01-07T09:59:32;1.20;99.90
13389;DHT22;6764;53.250;10.410;2024-01-07T10:01:58;1.20;99.90
13389;DHT22;6764;53.250;10.410;2024-01-07T10:04:24;1.00;99.90
13389;DHT22;6764;53.250;10.410;2024-01-07T10:06:50;1.10;99.90
13389;DHT22;6764;53.250;10.410;2024-01-07T10:09:18;1.10;99.90
13389;DHT22;6764;53.250;10.410;2024-01-07T10:11:44;1.00;99.90
13389;DHT22;6764;53.250;10.410;2024-01-07T10:14:10;1.00;99.90
13389;DHT22;6764;53.250;10.410;2024-01-07T10:16:36;1.00;99.90
13389;DHT22;6764;53.250;10.410;2024-01-07T10:19:01;1.00;99.90
13389;DHT22;6764;53.250;10.410;2024-01-07T10:21:27;1.00;99.90
13389;DHT22;6764;53.250;10.410;2024-01-07T10:26:38;1.10;99.90
13389;DHT22;6764;53.250;10.410;2024-01-07T10:29:04;1.10;99.90
13389;DHT22;6764;53.250;10.410;2024-01-07T10:31:31;1.00;99.90
13389;DHT22;6764;53.250;10.410;2024-01-07T10:33:57;1.00;99.90
13389;DHT22;6764;53.250;10.410;2024-01-07T10:36:24;1.00;99.90
13389;DHT22;6764;53.250;10.410;2024-01-07T10:38:50;1.10;99.90
13389;DHT22;6764;53.250;10.410;2024-01-07T10:41:19;1.20;99.90
13389;DHT22;6764;53.250;10.410;2024-01-07T10:43:48;1.30;99.90
13389;DHT22;6764;53.250;10.410;2024-01-07T10:46:15;1.20;99.90
13389;DHT22;6764;53.250;10.410;2024-01-07T10:48:53;1.10;99.90
13389;DHT22;6764;53.250;10.410;2024-01-07T10:51:21;1.20;99.90
13389;DHT22;6764;53.250;10.410;2024-01-07T10:53:52;1.20;99.90
13389;DHT22;6764;53.250;10.410;2024-01-07T10:56:23;1.20;99.90
13389;DHT22;6764;53.250;10.410;2024-01-07T10:58:53;1.20;99.90
13389;DHT22;6764;53.250;10.410;2024-01-07T11:01:20;1.10;99.90
13389;DHT22;6764;53.250;10.410;2024-01-07T11:09:42;1.00;99.90
13389;DHT22;6764;53.250;10.410;2024-01-07T11:12:11;0.90;99.90
13389;DHT22;6764;53.250;10.410;2024-01-07T11:14:41;0.90;99.90
13389;DHT22;6764;53.250;10.410;2024-01-07T11:17:11;1.00;99.90
13389;DHT22;6764;53.250;10.410;2024-01-07T11:19:36;1.00;99.90
13389;DHT22;6764;53.250;10.410;2024-01-07T11:22:21;1.20;99.90
13389;DHT22;6764;53.250;10.410;2024-01-07T11:24:47;1.10;99.90
13389;DHT22;6764;53.250;10.410;2024-01-07T11:27:13;1.20;99.90
13389;DHT22;6764;53.250;10.410;2024-01-07T11:29:40;1.30;99.90
13389;DHT22;6764;53.250;10.410;2024-01-07T11:32:06;1.30;99.90
13389;DHT22;6764;53.250;10.410;2024-01-07T11:34:42;1.40;99.90
13389;DHT22;6764;53.250;10.410;2024-01-07T11:37:12;1.30;99.90
13389;DHT22;6764;53.250;10.410;2024-01-07T11:39:42;1.40;99.90
13389;DHT22;6764;53.250;10.410;2024-01-07T11:42:07;1.40;99.90
13389;DHT22;6764;53.250;10.410;2024-01-07T11:44:34;1.40;99.90
13389;DHT22;6764;53.250;10.410;2024-01-07T11:47:02;1.50;99.90
13389;DHT22;6764;53.250;10.410;2024-01-07T11:49:28;1.60;99.90
13389;DHT22;6764;53.250;10.410;2024-01-07T11:51:54;1.60;99.90
13389;DHT22;6764;53.250;10.410;2024-01-07T11:54:19;1.50;99.90
13389;DHT22;6764;53.250;10.410;2024-01-07T11:56:45;1.40;99.90
13389;DHT22;6764;53.250;10.410;2024-01-07T11:59:11;1.40;99.90
13389;DHT22;6764;53.250;10.410;2024-01-07T12:01:36;1.30;99.90
13389;DHT22;6764;53.250;10.410;2024-01-07T12:04:02;1.30;99.90
13389;DHT22;6764;53.250;10.410;2024-01-07T12:06:27;1.20;99.90
13389;DHT22;6764;53.250;10.410;2024-01-07T12:08:53;1.30;99.90
13389;DHT22;6764;53.250;10.410;2024-01-07T12:11:19;1.40;99.90
13389;DHT22;6764;53.250;10.410;2024-01-07T12:13:45;1.40;99.90
13389;DHT22;6764;53.250;10.410;2024-01-07T12:16:11;1.50;99.90
13389;DHT22;6764;53.250;10.410;2024-01-07T12:18:37;1.40;99.90
13389;DHT22;6764;53.250;10.410;2024-01-07T12:21:03;1.40;99.90
13389;DHT22;6764;53.250;10.410;2024-01-07T12:23:34;1.50;99.90
13389;DHT22;6764;53.250;10.410;2024-01-07T12:26:11;1.50;99.90
13389;DHT22;6764;53.250;10.410;2024-01-07T12:28:37;1.50;99.90
13389;DHT22;6764;53.250;10.410;2024-01-07T12:31:06;1.50;99.90
13389;DHT22;6764;53.250;10.410;2024-01-07T12:33:33;1.50;99.90
13389;DHT22;6764;53.250;10.410;2024-01-07T12:36:00;1.60;99.90
13389;DHT22;6764;53.250;10.410;2024-01-07T12:38:26;1.60;99.90
13389;DHT22;6764;53.250;10.410;2024-01-07T12:40:55;1.60;99.90
13389;DHT22;6764;53.250;10.410;2024-01-07T12:43:21;1.40;99.90
13389;DHT22;6764;53.250;10.410;2024-01-07T12:45:50;1.40;99.90
13389;DHT22;6764;53.250;10.410;2024-01-07T12:48:16;1.40;99.90
13389;DHT22;6764;53.250;10.410;2024-01-07T12:50:41;1.30;99.90
13389;DHT22;6764;53.250;10.410;2024-01-07T12:53:07;1.40;99.90
13389;DHT22;6764;53.250;10.410;2024-01-07T12:55:33;1.50;99.90
13389;DHT22;6764;53.250;10.410;2024-01-07T12:57:59;1.60;99.90
13389;DHT22;6764;53.250;10.410;2024-01-07T13:00:25;1.70;99.90
13389;DHT22;6764;53.250;10.410;2024-01-07T13:02:52;1.60;99.90
13389;DHT22;6764;53.250;10.410;2024-01-07T13:05:17;1.70;99.90
13389;DHT22;6764;53.250;10.410;2024-01-07T13:07:44;1.30;99.90
13389;DHT22;6764;53.250;10.410;2024-01-07T13:10:10;1.20;99.90
13389;DHT22;6764;53.250;10.410;2024-01-07T13:12:35;1.30;99.90
13389;DHT22;6764;53.250;10.410;2024-01-07T13:15:02;1.10;99.90
13389;DHT22;6764;53.250;10.410;2024-01-07T13:17:28;1.10;99.90
13389;DHT22;6764;53.250;10.410;2024-01-07T13:19:55;1.30;99.90
13389;DHT22;6764;53.250;10.410;2024-01-07T13:22:21;1.40;99.90
13389;DHT22;6764;53.250;10.410;2024-01-07T13:24:47;1.20;99.90
13389;DHT22;6764;53.250;10.410;2024-01-07T13:27:12;1.20;99.90
13389;DHT22;6764;53.250;10.410;2024-01-07T13:29:38;0.90;99.90
13389;DHT22;6764;53.250;10.410;2024-01-07T13:32:04;1.00;99.90
13389;DHT22;6764;53.250;10.410;2024-01-07T13:34:30;1.00;99.90
13389;DHT22;6764;53.250;10.410;2024-01-07T13:36:56;1.20;99.90
13389;DHT22;6764;53.250;10.410;2024-01-07T13:39:21;1.10;99.90
13389;DHT22;6764;53.250;10.410;2024-01-07T13:41:47;1.00;99.90
13389;DHT22;6764;53.250;10.410;2024-01-07T13:44:13;1.00;99.90
13389;DHT22;6764;53.250;10.410;2024-01-07T13:46:45;1.00;99.90
13389;DHT22;6764;53.250;10.410;2024-01-07T13:49:12;1.10;99.90
13389;DHT22;6764;53.250;10.410;2024-01-07T13:51:38;1.10;99.90
13389;DHT22;6764;53.250;10.410;2024-01-07T13:54:04;1.20;99.90
13389;DHT22;6764;53.250;10.410;2024-01-07T13:56:31;1.30;99.90
13389;DHT22;6764;53.250;10.410;2024-01-07T13:58:56;1.40;99.90
13389;DHT22;6764;53.250;10.410;2024-01-07T14:01:22;1.20;99.90
13389;DHT22;6764;53.250;10.410;2024-01-07T14:03:47;1.20;99.90
13389;DHT22;6764;53.250;10.410;2024-01-07T14:06:13;1.10;99.90
13389;DHT22;6764;53.250;10.410;2024-01-07T14:08:39;1.00;99.90
13389;DHT22;6764;53.250;10.410;2024-01-07T14:11:04;1.00;99.90
13389;DHT22;6764;53.250;10.410;2024-01-07T14:13:32;0.80;99.90
13389;DHT22;6764;53.250;10.410;2024-01-07T14:15:58;0.80;99.90
13389;DHT22;6764;53.250;10.410;2024-01-07T14:18:23;0.40;99.90
13389;DHT22;6764;53.250;10.410;2024-01-07T14:20:49;0.20;99.90
13389;DHT22;6764;53.250;10.410;2024-01-07T14:23:14;0.30;99.90
13389;DHT22;6764;53.250;10.410;2024-01-07T14:25:40;0.50;99.90
13389;DHT22;6764;53.250;10.410;2024-01-07T14:28:07;0.60;99.90
13389;DHT22;6764;53.250;10.410;2024-01-07T14:30:33;0.50;99.90
13389;DHT22;6764;53.250;10.410;2024-01-07T14:32:58;0.40;99.90
13389;DHT22;6764;53.250;10.410;2024-01-07T14:35:24;0.30;99.90
13389;DHT22;6764;53.250;10.410;2024-01-07T14:37:54;0.10;99.90
13389;DHT22;6764;53.250;10.410;2024-01-07T14:40:20;0.10;99.90
13389;DHT22;6764;53.250;10.410;2024-01-07T14:42:45;-0.10;99.90
13389;DHT22;6764;53.250;10.410;2024-01-07T14:45:11;-0.10;99.90
13389;DHT22;6764;53.250;10.410;2024-01-07T14:47:36;-0.10;99.90
13389;DHT22;6764;53.250;10.410;2024-01-07T14:50:02;-0.10;99.90
13389;DHT22;6764;53.250;10.410;2024-01-07T14:52:28;-0.10;99.90
13389;DHT22;6764;53.250;10.410;2024-01-07T14:54:54;-0.50;99.90
13389;DHT22;6764;53.250;10.410;2024-01-07T14:57:19;-0.50;99.90
13389;DHT22;6764;53.250;10.410;2024-01-07T14:59:45;-0.50;99.90
13389;DHT22;6764;53.250;10.410;2024-01-07T15:02:10;-0.50;99.90
13389;DHT22;6764;53.250;10.410;2024-01-07T15:04:36;-0.30;99.90
13389;DHT22;6764;53.250;10.410;2024-01-07T15:07:02;-0.30;99.90
13389;DHT22;6764;53.250;10.410;2024-01-07T15:09:27;-0.50;99.90
13389;DHT22;6764;53.250;10.410;2024-01-07T15:11:54;-0.50;99.90
13389;DHT22;6764;53.250;10.410;2024-01-07T15:14:19;-0.50;99.90
13389;DHT22;6764;53.250;10.410;2024-01-07T15:16:45;-0.60;99.90
13389;DHT22;6764;53.250;10.410;2024-01-07T15:19:17;-0.40;99.90
13389;DHT22;6764;53.250;10.410;2024-01-07T15:21:43;-0.20;99.90
13389;DHT22;6764;53.250;10.410;2024-01-07T15:24:09;-0.20;99.90
13389;DHT22;6764;53.250;10.410;2024-01-07T15:26:35;-0.20;99.90
13389;DHT22;6764;53.250;10.410;2024-01-07T15:29:01;-0.30;99.90
13389;DHT22;6764;53.250;10.410;2024-01-07T15:31:27;-0.20;99.90
13389;DHT22;6764;53.250;10.410;2024-01-07T15:33:53;-0.10;99.90
13389;DHT22;6764;53.250;10.410;2024-01-07T15:36:19;-0.30;99.90
13389;DHT22;6764;53.250;10.410;2024-01-07T15:38:44;-0.30;99.90
13389;DHT22;6764;53.250;10.410;2024-01-07T15:41:10;-0.30;99.90
13389;DHT22;6764;53.250;10.410;2024-01-07T15:43:35;-0.50;99.90
13389;DHT22;6764;53.250;10.410;2024-01-07T15:46:03;-0.60;99.90